createdAt,value
2019-04-26T00:02:46.460Z,1.47
2019-04-26T00:05:50.364Z,1.30
2019-04-26T00:09:00.438Z,1.60
2019-04-26T00:12:23.108Z,1.30
2019-04-26T00:15:43.365Z,1.60
2019-04-26T00:18:47.652Z,1.73
2019-04-26T00:21:51.984Z,1.33
2019-04-26T00:24:56.227Z,1.83
2019-04-26T00:28:00.393Z,1.87
2019-04-26T00:31:04.341Z,1.60
2019-04-26T00:34:08.347Z,1.70
2019-04-26T00:37:13.047Z,1.80
2019-04-26T00:40:18.482Z,1.80
2019-04-26T00:43:23.749Z,1.80
2019-04-26T00:46:30.029Z,1.73
2019-04-26T00:49:43.491Z,1.80
2019-04-26T00:52:43.412Z,1.93
2019-04-26T00:55:48.794Z,1.90
2019-04-26T00:58:53.257Z,2.20
2019-04-26T01:02:03.211Z,2.00
2019-04-26T01:05:07.323Z,2.13
2019-04-26T01:08:11.245Z,2.00
2019-04-26T01:11:16.633Z,2.13
2019-04-26T01:14:24.631Z,2.43
2019-04-26T01:17:28.740Z,2.30
2019-04-26T01:20:35.185Z,1.87
2019-04-26T01:23:41.467Z,2.10
2019-04-26T01:26:48.311Z,2.17
2019-04-26T01:29:55.491Z,2.13
2019-04-26T01:33:01.086Z,2.00
2019-04-26T01:36:12.840Z,2.20
2019-04-26T01:39:16.937Z,2.50
2019-04-26T01:42:46.956Z,2.30
2019-04-26T01:45:59.456Z,2.67
2019-04-26T01:49:07.721Z,2.70
2019-04-26T01:52:13.651Z,2.50
2019-04-26T01:55:21.467Z,2.60
2019-04-26T01:58:27.211Z,2.83
2019-04-26T02:01:49.542Z,2.70
2019-04-26T02:04:56.299Z,2.67
2019-04-26T02:08:00.436Z,3.13
2019-04-26T02:11:04.500Z,3.37
2019-04-26T02:14:08.987Z,3.37
2019-04-26T02:17:13.004Z,3.30
2019-04-26T02:21:26.269Z,2.90
2019-04-26T02:24:43.637Z,2.27
2019-04-26T02:27:47.707Z,2.60
2019-04-26T02:30:53.155Z,2.27
2019-04-26T02:33:58.449Z,2.13
2019-04-26T02:37:04.922Z,2.33
2019-04-26T02:40:13.575Z,2.10
2019-04-26T02:43:20.830Z,2.40
2019-04-26T02:46:36.526Z,2.60
2019-04-26T02:49:46.389Z,2.67
2019-04-26T02:53:00.190Z,2.70
2019-04-26T02:56:28.211Z,2.40
2019-04-26T02:59:44.135Z,2.63
2019-04-26T03:02:54.181Z,2.80
2019-04-26T03:05:58.968Z,2.73
2019-04-26T03:09:06.742Z,2.70
2019-04-26T03:12:14.952Z,2.20
2019-04-26T03:15:44.136Z,2.63
2019-04-26T03:19:01.072Z,2.50
2019-04-26T03:22:17.934Z,3.10
2019-04-26T03:25:48.318Z,3.07
2019-04-26T03:29:16.632Z,3.10
2019-04-26T03:32:57.156Z,2.80
2019-04-26T03:36:24.024Z,2.70
2019-04-26T03:39:45.184Z,3.17
2019-04-26T03:43:07.610Z,2.93
2019-04-26T03:46:30.121Z,3.10
2019-04-26T03:49:55.388Z,2.90
2019-04-26T03:53:28.998Z,2.73
2019-04-26T03:57:13.741Z,2.63
2019-04-26T04:00:41.479Z,2.67
2019-04-26T04:04:20.444Z,2.90
2019-04-26T04:07:36.753Z,2.33
2019-04-26T04:10:41.974Z,2.53
2019-04-26T04:13:56.798Z,2.77
2019-04-26T04:17:31.686Z,2.37
2019-04-26T04:21:40.671Z,2.70
2019-04-26T04:24:52.613Z,3.03
2019-04-26T04:28:04.981Z,2.50
2019-04-26T04:31:27.315Z,2.77
2019-04-26T04:34:41.586Z,3.00
2019-04-26T04:38:08.513Z,3.37
2019-04-26T04:41:13.609Z,3.10
2019-04-26T04:44:30.936Z,3.00
2019-04-26T04:47:54.267Z,2.87
2019-04-26T04:51:09.017Z,3.00
2019-04-26T04:54:20.995Z,2.20
2019-04-26T04:57:58.050Z,2.27
2019-04-26T05:01:50.417Z,2.30
2019-04-26T05:05:30.009Z,2.70
2019-04-26T05:08:45.530Z,2.30
2019-04-26T05:12:11.211Z,2.70
2019-04-26T05:15:46.357Z,2.50
2019-04-26T05:19:30.855Z,2.23
2019-04-26T05:23:12.778Z,2.33
2019-04-26T05:27:19.452Z,2.00
2019-04-26T05:31:14.221Z,2.30
2019-04-26T05:34:35.627Z,2.53
2019-04-26T05:38:02.405Z,2.57
2019-04-26T05:41:27.564Z,2.30
2019-04-26T05:45:16.327Z,2.40
2019-04-26T05:48:52.279Z,2.37
2019-04-26T05:52:40.663Z,2.27
2019-04-26T05:56:34.160Z,2.60
2019-04-26T05:59:58.931Z,2.40
2019-04-26T06:03:33.163Z,2.40
2019-04-26T06:07:01.333Z,2.50
2019-04-26T06:10:32.587Z,1.90
2019-04-26T06:14:14.760Z,2.50
2019-04-26T06:17:51.639Z,2.20
2019-04-26T06:21:05.493Z,2.10
2019-04-26T06:24:52.675Z,2.10
2019-04-26T06:28:10.769Z,2.10
2019-04-26T06:31:42.079Z,2.50
2019-04-26T06:35:10.655Z,2.13
2019-04-26T06:38:51.542Z,2.20
2019-04-26T06:42:36.485Z,1.90
2019-04-26T06:46:22.993Z,2.00
2019-04-26T06:50:12.422Z,1.97
2019-04-26T06:53:41.165Z,2.03
2019-04-26T06:57:37.786Z,1.80
2019-04-26T07:01:08.751Z,1.70
2019-04-26T07:04:45.589Z,2.37
2019-04-26T07:08:40.998Z,2.00
2019-04-26T07:12:34.802Z,2.10
2019-04-26T07:16:17.770Z,2.10
2019-04-26T07:19:25.035Z,2.03
2019-04-26T07:22:56.539Z,2.00
2019-04-26T07:26:40.743Z,2.67
2019-04-26T07:30:27.858Z,2.63
2019-04-26T07:33:48.155Z,2.93
2019-04-26T07:37:48.219Z,2.97
2019-04-26T07:41:51.328Z,3.30
2019-04-26T07:45:24.660Z,2.40
2019-04-26T07:48:53.862Z,2.27
2019-04-26T07:52:32.447Z,2.20
2019-04-26T07:55:49.023Z,2.20
2019-04-26T07:59:31.342Z,1.90
2019-04-26T08:03:01.185Z,1.97
2019-04-26T08:06:17.892Z,2.07
2019-04-26T08:09:27.601Z,1.80
2019-04-26T08:12:34.650Z,2.07
2019-04-26T08:15:55.213Z,1.90
2019-04-26T08:19:05.706Z,2.00
2019-04-26T08:22:20.330Z,1.90
2019-04-26T08:25:20.710Z,1.90
2019-04-26T08:28:27.978Z,1.80
2019-04-26T08:31:34.154Z,1.60
2019-04-26T08:34:41.085Z,1.60
2019-04-26T08:37:53.043Z,1.93
2019-04-26T08:41:00.526Z,1.83
2019-04-26T08:44:34.547Z,1.83
2019-04-26T08:47:55.548Z,1.73
2019-04-26T08:51:02.120Z,1.90
2019-04-26T08:54:11.324Z,1.83
2019-04-26T08:57:16.945Z,1.80
2019-04-26T09:00:39.451Z,2.10
2019-04-26T09:04:08.984Z,1.90
2019-04-26T09:07:18.814Z,1.47
2019-04-26T09:10:26.119Z,1.80
2019-04-26T09:13:34.266Z,1.60
2019-04-26T09:16:49.860Z,1.60
2019-04-26T09:19:44.744Z,1.40
2019-04-26T09:23:03.836Z,1.80
2019-04-26T09:26:08.526Z,1.50
2019-04-26T09:29:33.556Z,1.40
2019-04-26T09:32:44.970Z,1.43
2019-04-26T09:35:48.956Z,1.73
2019-04-26T09:38:52.826Z,1.60
2019-04-26T09:42:01.157Z,1.40
2019-04-26T09:45:27.053Z,1.80
2019-04-26T09:48:38.086Z,2.23
2019-04-26T09:51:42.222Z,2.27
2019-04-26T09:54:46.119Z,2.27
2019-04-26T09:57:53.432Z,2.53
2019-04-26T10:00:55.843Z,2.90
2019-04-26T10:03:59.985Z,2.87
2019-04-26T10:07:04.200Z,2.77
2019-04-26T10:10:22.124Z,2.80
2019-04-26T10:13:26.374Z,2.83
2019-04-26T10:16:55.454Z,2.63
2019-04-26T10:19:59.800Z,2.60
2019-04-26T10:23:04.626Z,2.73
2019-04-26T10:26:08.971Z,2.53
2019-04-26T10:29:13.199Z,2.40
2019-04-26T10:32:17.282Z,2.90
2019-04-26T10:35:21.786Z,2.63
2019-04-26T10:38:27.107Z,2.50
2019-04-26T10:41:31.322Z,2.30
2019-04-26T10:44:35.721Z,2.37
2019-04-26T10:47:40.926Z,2.50
2019-04-26T10:50:44.799Z,2.07
2019-04-26T10:53:54.782Z,1.80
2019-04-26T10:57:03.520Z,2.30
2019-04-26T11:00:17.819Z,2.30
2019-04-26T11:03:19.996Z,2.17
2019-04-26T11:06:27.634Z,2.13
2019-04-26T11:09:29.931Z,2.53
2019-04-26T11:12:33.840Z,2.03
2019-04-26T11:15:38.046Z,1.90
2019-04-26T11:18:42.293Z,2.00
2019-04-26T11:21:46.277Z,1.90
2019-04-26T11:24:53.917Z,1.80
2019-04-26T11:27:56.394Z,1.70
2019-04-26T11:31:00.547Z,1.73
2019-04-26T11:34:05.843Z,3.63
2019-04-26T11:37:13.446Z,1.80
2019-04-26T11:40:16.146Z,1.50
2019-04-26T11:43:21.116Z,1.43
2019-04-26T11:46:29.070Z,1.53
2019-04-26T11:49:31.521Z,1.70
2019-04-26T11:52:37.227Z,1.63
2019-04-26T11:55:41.369Z,1.60
2019-04-26T11:58:45.260Z,1.50
2019-04-26T12:01:49.120Z,1.67
2019-04-26T12:05:11.001Z,1.50
2019-04-26T12:08:17.180Z,1.70
2019-04-26T12:11:30.336Z,1.47
2019-04-26T12:14:29.490Z,1.37
2019-04-26T12:17:35.216Z,1.60
2019-04-26T12:20:38.850Z,1.50
2019-04-26T12:23:43.173Z,1.43
2019-04-26T12:26:46.983Z,1.77
2019-04-26T12:29:51.205Z,1.57
2019-04-26T12:32:55.303Z,1.57
2019-04-26T12:35:59.532Z,1.70
2019-04-26T12:39:04.661Z,1.90
2019-04-26T12:42:12.340Z,1.80
2019-04-26T12:45:21.923Z,2.10
2019-04-26T12:48:26.330Z,1.90
2019-04-26T12:51:30.325Z,2.10
2019-04-26T12:54:34.214Z,1.80
2019-04-26T12:57:40.817Z,2.20
2019-04-26T13:00:53.797Z,1.80
2019-04-26T13:04:04.082Z,1.90
2019-04-26T13:07:23.291Z,1.73
2019-04-26T13:10:50.368Z,1.40
2019-04-26T13:14:05.898Z,1.20
2019-04-26T13:17:13.257Z,1.70
2019-04-26T13:20:17.132Z,1.50
2019-04-26T13:23:21.097Z,1.77
2019-04-26T13:26:25.240Z,1.43
2019-04-26T13:29:31.186Z,1.60
2019-04-26T13:32:35.103Z,1.00
2019-04-26T13:35:41.381Z,1.20
2019-04-26T13:38:45.196Z,1.27
2019-04-26T13:41:56.253Z,2.13
2019-04-26T13:45:00.151Z,1.27
2019-04-26T13:48:28.970Z,1.17
2019-04-26T13:51:33.782Z,1.40
2019-04-26T13:54:38.036Z,1.60
2019-04-26T13:57:44.578Z,1.77
2019-04-26T14:00:47.532Z,1.77
2019-04-26T14:03:51.812Z,1.40
2019-04-26T14:06:55.732Z,1.90
2019-04-26T14:09:59.923Z,1.73
2019-04-26T14:13:04.326Z,1.47
2019-04-26T14:16:08.666Z,1.90
2019-04-26T14:19:15.594Z,1.60
2019-04-26T14:22:20.290Z,2.10
2019-04-26T14:25:26.957Z,1.83
2019-04-26T14:28:31.299Z,1.70
2019-04-26T14:31:35.328Z,2.00
2019-04-26T14:34:40.418Z,1.90
2019-04-26T14:37:49.684Z,1.70
2019-04-26T14:41:03.306Z,2.00
2019-04-26T14:43:56.946Z,2.20
2019-04-26T14:47:12.999Z,1.90
2019-04-26T14:50:14.036Z,2.07
2019-04-26T14:53:14.404Z,2.77
2019-04-26T14:56:18.682Z,2.27
2019-04-26T14:59:46.937Z,2.17
2019-04-26T15:03:12.303Z,2.10
2019-04-26T15:06:20.528Z,2.27
2019-04-26T15:12:29.908Z,2.27
2019-04-26T15:15:34.761Z,2.33
2019-04-26T15:18:39.003Z,2.10
2019-04-26T15:21:42.916Z,1.80
2019-04-26T15:24:47.158Z,2.00
2019-04-26T15:27:52.487Z,2.03
2019-04-26T15:30:57.177Z,1.90
2019-04-26T15:34:01.013Z,2.20
2019-04-26T15:37:05.265Z,2.00
2019-04-26T15:40:17.625Z,1.80
2019-04-26T15:43:28.973Z,1.80
2019-04-26T15:46:51.029Z,1.73
2019-04-26T15:50:03.956Z,2.20
2019-04-26T15:53:12.906Z,2.17
2019-04-26T15:56:16.291Z,1.83
2019-04-26T15:59:22.774Z,2.10
2019-04-26T16:02:26.281Z,1.70
2019-04-26T16:05:32.426Z,1.73
2019-04-26T16:08:42.654Z,7.30
2019-04-26T16:11:49.312Z,1.80
2019-04-26T16:14:48.114Z,1.80
2019-04-26T16:17:51.952Z,1.57
2019-04-26T16:20:55.777Z,1.37
2019-04-26T16:24:00.007Z,1.23
2019-04-26T16:27:04.077Z,1.50
2019-04-26T16:30:24.044Z,1.20
2019-04-26T16:33:33.584Z,1.40
2019-04-26T16:36:36.664Z,1.40
2019-04-26T16:39:46.086Z,1.47
2019-04-26T16:42:49.720Z,1.30
2019-04-26T16:45:54.243Z,1.17
2019-04-26T16:49:03.805Z,1.13
2019-04-26T16:52:07.013Z,2.30
2019-04-26T16:55:17.620Z,1.90
2019-04-26T16:58:16.165Z,1.50
2019-04-26T17:01:20.385Z,1.97
2019-04-26T17:04:28.216Z,1.80
2019-04-26T17:07:29.897Z,1.50
2019-04-26T17:10:33.903Z,1.73
2019-04-26T17:13:48.377Z,1.53
2019-04-26T17:16:44.431Z,1.80
2019-04-26T17:19:48.303Z,1.63
2019-04-26T17:23:10.401Z,2.17
2019-04-26T17:26:33.737Z,1.97
2019-04-26T17:29:35.361Z,2.00
2019-04-26T17:32:39.353Z,1.50
2019-04-26T17:35:43.377Z,1.60
2019-04-26T17:38:47.293Z,2.40
2019-04-26T17:41:54.104Z,2.10
2019-04-26T17:44:57.520Z,1.90
2019-04-26T17:48:06.511Z,1.90
2019-04-26T17:51:12.119Z,1.87
2019-04-26T17:54:41.618Z,1.90
2019-04-26T17:57:32.017Z,2.00
2019-04-26T18:00:28.717Z,2.20
2019-04-26T18:03:32.675Z,2.50
2019-04-26T18:06:36.815Z,2.47
2019-04-26T18:09:45.950Z,2.57
2019-04-26T18:12:47.241Z,2.23
2019-04-26T18:15:52.735Z,2.50
2019-04-26T18:19:30.199Z,3.10
2019-04-26T18:23:05.210Z,3.00
2019-04-26T18:26:07.349Z,3.00
2019-04-26T18:29:13.036Z,2.40
2019-04-26T18:32:17.400Z,2.53
2019-04-26T18:35:21.361Z,2.43
2019-04-26T18:38:25.474Z,2.70
2019-04-26T18:41:29.926Z,3.07
2019-04-26T18:44:38.365Z,2.47
2019-04-26T18:47:41.597Z,2.60
2019-04-26T18:50:46.071Z,2.43
2019-04-26T18:54:09.350Z,2.60
2019-04-26T18:57:17.094Z,2.77
2019-04-26T19:00:29.008Z,3.20
2019-04-26T19:03:33.823Z,3.10
2019-04-26T19:06:42.234Z,3.40
2019-04-26T19:09:59.044Z,2.90
2019-04-26T19:12:52.180Z,3.60
2019-04-26T19:16:03.633Z,3.10
2019-04-26T19:19:27.101Z,3.50
2019-04-26T19:22:32.201Z,3.43
2019-04-26T19:25:40.900Z,3.80
2019-04-26T19:28:44.600Z,4.00
2019-04-26T19:31:48.600Z,4.73
2019-04-26T19:34:52.550Z,5.10
2019-04-26T19:37:56.524Z,4.47
2019-04-26T19:41:02.337Z,6.70
2019-04-26T19:44:06.750Z,7.00
2019-04-26T19:47:31.035Z,7.23
2019-04-26T19:50:50.568Z,7.53
2019-04-26T19:54:07.399Z,5.23
2019-04-26T19:57:17.083Z,4.67
2019-04-26T20:00:21.908Z,4.40
2019-04-26T20:03:25.899Z,3.73
2019-04-26T20:06:32.266Z,3.90
2019-04-26T20:09:37.084Z,3.90
2019-04-26T20:12:41.420Z,3.27
2019-04-26T20:15:45.276Z,3.47
2019-04-26T20:18:49.451Z,3.20
2019-04-26T20:21:53.633Z,3.10
2019-04-26T20:24:57.682Z,2.90
2019-04-26T20:28:03.178Z,3.27
2019-04-26T20:31:26.858Z,3.20
2019-04-26T20:34:32.106Z,3.13
2019-04-26T20:37:37.216Z,2.80
2019-04-26T20:40:43.394Z,3.13
2019-04-26T20:44:02.467Z,3.10
2019-04-26T20:46:52.631Z,3.53
2019-04-26T20:50:01.553Z,2.60
2019-04-26T20:53:03.104Z,2.80
2019-04-26T20:56:09.777Z,2.73
2019-04-26T20:59:16.776Z,3.00
2019-04-26T21:02:20.847Z,2.80
2019-04-26T21:05:24.467Z,3.07
2019-04-26T21:08:28.421Z,2.80
2019-04-26T21:11:37.266Z,2.80
2019-04-26T21:14:44.308Z,3.10
2019-04-26T21:17:43.452Z,3.07
2019-04-26T21:20:47.355Z,2.83
2019-04-26T21:23:51.935Z,3.50
2019-04-26T21:27:15.221Z,3.57
2019-04-26T21:30:34.739Z,3.60
2019-04-26T21:33:42.991Z,3.47
2019-04-26T21:37:21.856Z,3.60
2019-04-26T21:40:30.160Z,3.93
2019-04-26T21:43:38.194Z,3.30
2019-04-26T21:46:40.596Z,3.10
2019-04-26T21:49:44.780Z,2.80
2019-04-26T21:52:48.586Z,2.90
2019-04-26T21:55:52.406Z,3.20
2019-04-26T21:58:56.799Z,2.87
2019-04-26T22:02:00.681Z,2.70
2019-04-26T22:05:08.027Z,3.20
2019-04-26T22:08:10.815Z,3.53
2019-04-26T22:11:19.802Z,5.10
2019-04-26T22:14:23.847Z,5.93
2019-04-26T22:17:40.635Z,5.10
2019-04-26T22:20:54.558Z,4.50
2019-04-26T22:24:05.942Z,3.70
2019-04-26T22:27:10.553Z,3.70
2019-04-26T22:30:22.678Z,3.50
2019-04-26T22:33:27.416Z,3.70
2019-04-26T22:36:35.595Z,4.03
2019-04-26T22:39:39.778Z,4.13
2019-04-26T22:42:46.813Z,4.10
2019-04-26T22:45:54.913Z,3.73
2019-04-26T22:49:01.376Z,3.07
2019-04-26T22:52:06.360Z,3.70
2019-04-26T22:55:15.844Z,3.03
2019-04-26T22:58:20.560Z,3.17
2019-04-26T23:01:22.749Z,3.47
2019-04-26T23:04:27.576Z,3.00
2019-04-26T23:07:33.144Z,2.93
2019-04-26T23:10:45.958Z,2.70
2019-04-26T23:14:11.594Z,3.10
2019-04-26T23:17:27.110Z,2.57
2019-04-26T23:20:43.048Z,2.60
2019-04-26T23:23:47.007Z,2.40
2019-04-26T23:26:50.854Z,2.80
2019-04-26T23:29:58.283Z,2.80
2019-04-26T23:33:00.897Z,2.90
2019-04-26T23:36:05.004Z,3.03
2019-04-26T23:39:12.080Z,2.90
2019-04-26T23:42:16.444Z,2.80
2019-04-26T23:45:20.888Z,2.90
2019-04-26T23:48:24.681Z,2.90
2019-04-26T23:51:28.844Z,2.70
2019-04-26T23:54:35.907Z,2.90
2019-04-26T23:57:38.423Z,2.90
